Time;durP1;ratioP1;P1;durP2;ratioP2;P2;SDS_P1;SDS_P2;PMS_P1;PMS_P2;Temp;Humidity;BMP_temperature;BMP_pressure;BME280_temperature;BME280_humidity;BME280_pressure;Samples;Min_cycle;Max_cycle;Signal;HPM_P1;HPM_P2
2023/09/14 00:04:13;;;;;;;;;;;;;;;15.40;70.94;101534.84;15829672;28;20442;-47
2023/09/14 00:11:49;;;;;;;6.68;2.63;;;;;;;15.57;70.49;101541.31;15854752;28;19963;-46
2023/09/14 00:19:26;;;;;;;5.57;2.90;;;;;;;15.27;71.53;101547.41;15870427;28;20511;-46
2023/09/14 00:26:59;;;;;;;5.50;2.78;;;;;;;15.37;71.17;101555.03;15870065;28;20062;-47
2023/09/14 00:34:33;;;;;;;9.05;2.60;;;;;;;15.42;70.95;101551.66;15850043;28;20047;-46
2023/09/14 00:42:07;;;;;;;6.85;2.53;;;;;;;15.19;71.59;101566.63;15851280;28;20040;-46
2023/09/14 00:49:42;;;;;;;9.65;2.72;;;;;;;15.47;70.86;101568.03;15850636;28;20035;-46
2023/09/14 00:57:17;;;;;;;7.10;2.63;;;;;;;15.32;71.18;101563.81;15868303;28;20083;-45
2023/09/14 01:04:51;;;;;;;5.43;2.33;;;;;;;15.64;69.98;101555.63;15845910;28;20044;-45
2023/09/14 01:12:25;;;;;;;10.20;2.47;;;;;;;15.71;69.55;101561.78;15815107;28;20044;-45
2023/09/14 01:20:03;;;;;;;;;;;;;;;15.07;71.42;101564.88;15866404;28;20089;-46
2023/09/14 01:27:38;;;;;;;6.75;2.78;;;;;;;15.38;70.40;101567.50;15866669;28;20011;-46
2023/09/14 01:35:14;;;;;;;5.47;2.20;;;;;;;15.41;69.40;101566.25;15848519;28;20036;-46
2023/09/14 01:42:50;;;;;;;7.32;2.80;;;;;;;15.44;70.09;101576.63;15848159;28;20119;-50
2023/09/14 01:50:23;;;;;;;7.15;2.45;;;;;;;15.34;70.61;101587.09;15847437;28;20050;-46
2023/09/14 01:57:58;;;;;;;6.85;2.50;;;;;;;15.27;70.58;101589.88;15847817;28;20031;-49
2023/09/14 02:05:31;;;;;;;8.27;2.58;;;;;;;14.94;71.25;101582.00;15847352;28;20052;-49
2023/09/14 02:13:06;;;;;;;7.55;2.72;;;;;;;14.50;72.42;101584.56;15831108;28;20142;-49
2023/09/14 02:20:39;;;;;;;5.30;2.60;;;;;;;14.35;73.01;101580.44;15784436;28;20036;-46
2023/09/14 02:28:15;;;;;;;10.32;2.78;;;;;;;14.11;72.98;101577.41;15759972;22;20103;-51
2023/09/14 02:35:50;;;;;;;9.13;2.70;;;;;;;14.58;71.55;101583.47;15625126;28;20441;-49
2023/09/14 02:43:25;;;;;;;9.10;3.10;;;;;;;14.43;71.36;101593.69;15625226;28;20043;-49
2023/09/14 02:50:59;;;;;;;9.85;3.40;;;;;;;13.88;74.16;101604.03;15624276;28;20041;-51
2023/09/14 02:58:33;;;;;;;5.20;2.83;;;;;;;13.67;74.40;101605.13;15624110;28;20079;-49
2023/09/14 03:06:08;;;;;;;8.02;3.10;;;;;;;13.82;72.98;101613.00;15713143;28;20053;-48
2023/09/14 03:13:45;;;;;;;7.60;2.90;;;;;;;14.17;71.90;101618.91;15726658;28;20032;-50
2023/09/14 03:21:23;;;;;;;8.52;3.45;;;;;;;14.23;71.10;101629.72;15730381;28;20044;-49
2023/09/14 03:28:59;;;;;;;4.78;2.90;;;;;;;13.94;71.76;101628.34;15730352;28;20124;-48
2023/09/14 03:36:37;;;;;;;10.30;3.13;;;;;;;13.81;72.26;101638.31;15731360;28;20060;-48
2023/09/14 03:44:12;;;;;;;6.65;3.35;;;;;;;13.52;73.28;101652.03;15729282;28;20119;-50
2023/09/14 03:51:45;;;;;;;5.15;3.47;;;;;;;13.59;72.44;101657.44;15728681;28;20048;-50
2023/09/14 03:59:23;;;;;;;8.02;3.40;;;;;;;13.45;72.46;101664.69;15729051;28;20493;-51
2023/09/14 04:06:56;;;;;;;8.23;3.28;;;;;;;13.06;72.35;101661.91;15725347;28;20078;-50
2023/09/14 04:14:30;;;;;;;;;;;;;;;13.49;71.51;101657.84;15723996;28;20259;-51
2023/09/14 04:22:07;;;;;;;6.47;3.40;;;;;;;12.87;74.13;101669.75;15710362;28;20022;-53
2023/09/14 04:29:43;;;;;;;7.43;3.67;;;;;;;12.89;74.04;101675.75;15726853;28;20032;-53
2023/09/14 04:37:17;;;;;;;6.78;3.03;;;;;;;12.80;73.34;101685.03;15672340;28;20398;-49
2023/09/14 04:44:54;;;;;;;8.73;3.80;;;;;;;12.54;74.60;101688.44;15695846;28;20401;-50
2023/09/14 04:52:28;;;;;;;7.70;3.80;;;;;;;12.21;77.28;101699.03;15664080;28;20041;-53
2023/09/14 05:00:07;;;;;;;6.03;3.60;;;;;;;12.36;76.47;101705.16;15725066;28;20028;-51
2023/09/14 05:07:43;;;;;;;7.97;3.65;;;;;;;12.17;76.25;101716.59;15742229;28;20057;-48
2023/09/14 05:15:18;;;;;;;12.60;3.90;;;;;;;12.65;75.47;101724.75;15702510;28;20044;-54
2023/09/14 05:22:51;;;;;;;9.73;3.67;;;;;;;13.15;74.16;101722.66;15715020;28;20043;-50
2023/09/14 05:30:26;;;;;;;7.55;3.70;;;;;;;12.94;73.62;101729.84;15739341;28;20051;-48
2023/09/14 05:38:00;;;;;;;9.00;4.38;;;;;;;12.46;77.03;101740.63;15707538;28;20048;-49
2023/09/14 05:45:35;;;;;;;12.05;4.30;;;;;;;12.66;75.44;101721.03;15723216;28;20093;-51
2023/09/14 05:53:11;;;;;;;8.23;3.90;;;;;;;12.72;76.22;101745.28;15723940;28;20048;-48
2023/09/14 06:00:46;;;;;;;12.25;3.95;;;;;;;12.99;74.85;101748.13;15736703;28;20116;-50
2023/09/14 06:08:20;;;;;;;7.18;3.97;;;;;;;13.41;74.24;101757.00;15693986;28;20523;-48
2023/09/14 06:15:56;;;;;;;8.75;3.90;;;;;;;13.71;72.96;101760.16;15720466;28;20040;-50
2023/09/14 06:23:29;;;;;;;7.50;3.50;;;;;;;14.03;71.66;101769.28;15738797;28;20041;-50
2023/09/14 06:31:03;;;;;;;8.38;3.50;;;;;;;14.14;69.81;101738.97;15720899;28;20143;-50
2023/09/14 06:38:37;;;;;;;4.53;2.92;;;;;;;14.77;68.72;101768.19;15730202;28;20572;-53
2023/09/14 06:46:12;;;;;;;5.80;3.50;;;;;;;15.17;66.81;101758.03;15719702;28;20054;-48
2023/09/14 06:53:45;;;;;;;7.07;2.70;;;;;;;15.62;66.83;101765.25;15737897;28;20041;-49
2023/09/14 07:01:20;;;;;;;7.07;2.92;;;;;;;15.48;64.93;101770.78;15737667;28;20550;-48
2023/09/14 07:08:53;;;;;;;7.82;2.70;;;;;;;16.08;64.59;101778.47;15719114;28;20045;-51
2023/09/14 07:16:28;;;;;;;8.20;2.85;;;;;;;16.74;63.37;101786.00;15721794;28;20040;-51
2023/09/14 07:24:01;;;;;;;7.45;2.83;;;;;;;16.33;62.36;101800.16;15751089;28;20198;-49
2023/09/14 07:31:36;;;;;;;5.18;2.10;;;;;;;17.31;62.10;101799.28;15712672;28;20366;-49
2023/09/14 07:39:09;;;;;;;8.10;2.33;;;;;;;17.18;61.54;101810.31;15740588;28;20044;-52
2023/09/14 07:46:46;;;;;;;6.35;2.13;;;;;;;17.54;59.66;101815.69;15747803;28;20052;-48
2023/09/14 07:54:21;;;;;;;6.03;2.10;;;;;;;17.75;60.18;101827.94;15729033;28;20036;-48
2023/09/14 08:01:56;;;;;;;5.13;1.85;;;;;;;18.14;59.52;101833.84;15745799;28;20072;-49
2023/09/14 08:09:29;;;;;;;4.40;1.50;;;;;;;19.27;56.07;101840.75;15728001;28;20601;-53
2023/09/14 08:17:04;;;;;;;5.18;1.50;;;;;;;18.94;54.84;101833.25;15727579;28;20049;-50
2023/09/14 08:24:40;;;;;;;7.22;1.60;;;;;;;19.86;53.57;101832.34;15736135;28;20515;-51
2023/09/14 08:32:16;;;;;;;5.57;1.50;;;;;;;19.41;53.00;101821.41;15698931;23;20453;-74
2023/09/14 08:39:50;;;;;;;3.05;1.35;;;;;;;19.64;51.93;101839.59;15727718;28;20072;-73
2023/09/14 08:47:25;;;;;;;4.43;1.60;;;;;;;19.80;53.22;101833.34;15724046;28;20052;-74
2023/09/14 08:54:59;;;;;;;5.40;2.17;;;;;;;19.78;53.51;101849.94;15723814;28;20506;-74
2023/09/14 09:02:37;;;;;;;4.78;1.60;;;;;;;19.33;54.36;101847.94;15724177;28;20051;-74
2023/09/14 09:10:20;;;;;;;5.03;1.70;;;;;;;20.34;51.49;101859.06;15706815;28;20045;-74
2023/09/14 09:17:56;;;;;;;4.88;1.42;;;;;;;19.74;51.84;101831.59;15740203;28;20410;-74
2023/09/14 09:25:42;;;;;;;4.78;1.50;;;;;;;20.19;51.46;101864.28;15705675;28;20044;-73
2023/09/14 09:33:16;;;;;;;4.45;1.45;;;;;;;18.78;54.98;101856.56;15739687;28;20048;-72
2023/09/14 09:40:50;;;;;;;6.32;1.77;;;;;;;19.72;52.84;101850.91;15739044;28;20736;-74
2023/09/14 09:48:24;;;;;;;5.32;1.20;;;;;;;20.84;50.52;101857.38;15739842;28;20044;-74
2023/09/14 09:55:58;;;;;;;3.75;1.50;;;;;;;18.90;55.59;101858.47;15738378;28;20063;-73
2023/09/14 10:03:34;;;;;;;4.55;1.40;;;;;;;19.49;52.03;101851.81;15738727;28;20052;-73
2023/09/14 10:11:07;;;;;;;5.95;1.60;;;;;;;21.24;47.41;101856.28;15739103;28;20047;-74
2023/09/14 10:18:44;;;;;;;3.70;1.52;;;;;;;20.88;46.40;101861.25;15737543;28;20485;-74
2023/09/14 10:26:19;;;;;;;3.13;1.60;;;;;;;20.05;49.97;101858.34;15738644;28;20115;-72
2023/09/14 10:33:59;;;;;;;3.17;1.33;;;;;;;21.28;48.27;101857.41;15740765;28;20536;-72
2023/09/14 10:41:33;;;;;;;4.32;1.30;;;;;;;21.29;46.34;101846.22;15736939;28;20060;-72
2023/09/14 10:49:08;;;;;;;4.72;1.50;;;;;;;22.63;44.52;101850.00;15719944;28;20094;-73
2023/09/14 10:56:41;;;;;;;4.75;1.58;;;;;;;22.80;43.42;101844.34;15749903;28;20458;-73
2023/09/14 11:04:19;;;;;;;8.02;1.73;;;;;;;23.25;43.10;101836.63;15751016;28;20048;-73
2023/09/14 11:11:52;;;;;;;3.22;1.30;;;;;;;23.39;41.21;101824.06;15731864;28;20068;-73
2023/09/14 11:19:52;;;;;;;3.95;1.50;;;;;;;21.69;43.55;101828.69;15730739;28;20060;-73
2023/09/14 11:27:26;;;;;;;8.27;1.63;;;;;;;21.69;43.03;101825.13;15747611;28;20048;-74
2023/09/14 11:35:01;;;;;;;5.93;1.60;;;;;;;23.34;40.24;101819.41;15747138;28;20051;-73
2023/09/14 11:43:20;;;;;;;4.78;1.50;;;;;;;23.14;41.23;101824.81;15747611;28;20052;-73
2023/09/14 11:50:56;;;;;;;6.13;1.33;;;;;;;22.94;39.21;101816.50;15745939;28;20044;-72
2023/09/14 11:58:35;;;;;;;3.65;1.33;;;;;;;24.16;38.91;101816.81;15745902;28;20076;-73
2023/09/14 12:06:10;;;;;;;2.65;1.27;;;;;;;24.93;35.09;101804.56;15745630;28;20097;-73
2023/09/14 12:13:51;;;;;;;2.67;1.38;;;;;;;25.54;37.62;101813.63;15725890;28;20037;-73
2023/09/14 12:21:25;;;;;;;3.28;1.50;;;;;;;26.70;33.91;101808.25;15683535;28;20049;-74
2023/09/14 12:28:59;;;;;;;3.45;1.50;;;;;;;24.85;33.59;101805.13;15718599;28;20037;-73
2023/09/14 12:36:33;;;;;;;3.47;1.23;;;;;;;24.72;33.95;101796.69;15742845;28;20048;-74
2023/09/14 12:44:07;;;;;;;3.05;1.17;;;;;;;25.16;35.77;101802.28;15744746;28;20106;-73
2023/09/14 12:51:47;;;;;;;3.10;1.60;;;;;;;22.79;38.54;101792.59;15725157;28;20136;-73
2023/09/14 12:59:21;;;;;;;5.68;1.50;;;;;;;23.28;36.92;101795.00;15742391;28;20052;-73
2023/09/14 13:06:57;;;;;;;3.72;1.60;;;;;;;23.96;36.30;101803.91;15717463;28;20062;-73
2023/09/14 13:14:31;;;;;;;4.72;1.67;;;;;;;23.77;37.06;101791.81;15723449;28;20054;-73
2023/09/14 13:22:06;;;;;;;2.72;1.60;;;;;;;24.15;37.56;101796.78;15741008;28;20412;-73
2023/09/14 13:29:39;;;;;;;3.58;1.60;;;;;;;25.14;36.00;101779.78;15740771;28;20466;-73
2023/09/14 13:37:14;;;;;;;5.85;1.50;;;;;;;26.10;34.00;101769.19;15722706;28;20063;-73
2023/09/14 13:44:48;;;;;;;3.50;1.50;;;;;;;25.62;33.91;101782.78;15724623;28;20044;-73
2023/09/14 13:52:22;;;;;;;4.30;1.45;;;;;;;24.23;35.98;101783.59;15742959;28;20178;-73
2023/09/14 13:59:56;;;;;;;6.57;1.77;;;;;;;23.42;38.25;101774.22;15721433;28;20144;-71
2023/09/14 14:07:31;;;;;;;6.07;1.67;;;;;;;23.20;37.56;101785.38;15723221;28;20047;-73
2023/09/14 14:15:04;;;;;;;4.15;1.70;;;;;;;21.12;39.71;101791.72;15739736;28;20044;-73
2023/09/14 14:22:39;;;;;;;3.78;1.65;;;;;;;21.55;39.13;101791.94;15825224;22;20047;-48
2023/09/14 14:30:13;;;;;;;5.82;1.50;;;;;;;22.15;40.92;101786.19;15806739;28;20083;-50
2023/09/14 14:37:49;;;;;;;4.20;1.40;;;;;;;22.41;39.43;101797.31;15758160;22;20481;-45
2023/09/14 14:45:25;;;;;;;5.10;1.70;;;;;;;22.14;40.33;101792.72;15751576;28;20520;-46
2023/09/14 14:53:00;;;;;;;3.72;1.40;;;;;;;22.42;39.88;101790.75;15727988;28;20066;-46
2023/09/14 15:00:33;;;;;;;3.22;1.40;;;;;;;22.38;40.59;101790.47;15731776;28;20044;-45
2023/09/14 15:08:07;;;;;;;3.08;1.35;;;;;;;21.91;40.44;101793.88;15748659;28;20110;-49
2023/09/14 15:15:41;;;;;;;3.50;1.60;;;;;;;21.59;42.46;101803.97;15735797;28;20045;-49
2023/09/14 15:23:15;;;;;;;6.28;1.75;;;;;;;21.43;42.11;101802.19;15737544;28;20117;-47
2023/09/14 15:30:52;;;;;;;4.22;1.42;;;;;;;21.51;42.67;101810.75;15730388;28;20033;-45
2023/09/14 15:38:27;;;;;;;4.03;1.60;;;;;;;21.50;41.74;101805.53;15741017;28;20090;-46
2023/09/14 15:46:00;;;;;;;3.67;1.90;;;;;;;21.54;41.88;101803.91;15742052;28;20041;-45
2023/09/14 15:53:36;;;;;;;5.15;1.60;;;;;;;21.04;43.40;101810.44;15733447;28;20044;-52
2023/09/14 16:01:09;;;;;;;3.50;1.73;;;;;;;21.30;43.76;101803.34;15716705;28;20501;-48
2023/09/14 16:08:44;;;;;;;5.68;1.80;;;;;;;21.02;43.21;101794.28;15738945;28;20060;-52
2023/09/14 16:16:17;;;;;;;2.90;1.70;;;;;;;20.49;42.87;101806.69;15744812;28;20124;-48
2023/09/14 16:23:56;;;;;;;2.22;1.40;;;;;;;20.59;44.58;101787.75;15727454;28;20063;-47
2023/09/14 16:31:36;;;;;;;4.70;1.70;;;;;;;20.89;44.55;101784.59;15724658;28;20128;-46
2023/09/14 16:39:11;;;;;;;5.47;1.90;;;;;;;20.79;45.74;101789.91;15726062;28;20081;-50
2023/09/14 16:46:48;;;;;;;3.13;1.63;;;;;;;20.66;45.80;101797.63;15742708;28;20036;-47
2023/09/14 16:54:31;;;;;;;5.68;1.65;;;;;;;20.53;46.46;101796.13;15742480;28;20036;-52
2023/09/14 17:02:05;;;;;;;3.85;1.50;;;;;;;20.22;47.59;101792.06;15742426;28;20549;-50
2023/09/14 17:09:40;;;;;;;3.40;1.63;;;;;;;20.00;48.61;101794.72;15741838;28;20094;-49
2023/09/14 17:17:14;;;;;;;3.00;1.60;;;;;;;19.82;48.72;101793.88;15740761;28;20382;-50
2023/09/14 17:24:49;;;;;;;3.42;1.77;;;;;;;19.44;49.41;101796.41;15725149;28;20044;-47
2023/09/14 17:32:23;;;;;;;3.58;2.00;;;;;;;19.22;50.11;101801.72;15728828;28;20102;-47
2023/09/14 17:39:59;;;;;;;4.78;3.40;;;;;;;18.90;51.63;101804.88;15690889;28;20058;-47
2023/09/14 17:47:34;;;;;;;9.38;4.75;;;;;;;18.66;52.31;101808.69;15706507;28;20048;-48
2023/09/14 17:55:10;;;;;;;8.73;6.53;;;;;;;18.39;52.87;101808.31;15677774;28;20110;-50
2023/09/14 18:02:45;;;;;;;9.80;4.80;;;;;;;17.95;54.01;101814.06;15677079;28;20053;-48
2023/09/14 18:10:21;;;;;;;7.80;3.88;;;;;;;17.93;54.55;101818.88;15727841;28;20377;-50
2023/09/14 18:17:55;;;;;;;7.18;4.85;;;;;;;17.59;56.05;101831.28;15738413;28;20503;-47
2023/09/14 18:25:29;;;;;;;;;;;;;;;17.36;56.50;101842.84;15704503;28;20044;-49
2023/09/14 18:33:03;;;;;;;8.93;3.70;;;;;;;17.04;58.15;101848.44;15737411;28;19959;-50
2023/09/14 18:40:38;;;;;;;5.03;3.25;;;;;;;16.93;57.83;101851.94;15710885;28;20052;-48
2023/09/14 18:48:12;;;;;;;4.20;2.33;;;;;;;16.71;58.71;101848.78;15705305;28;20044;-46
2023/09/14 18:55:50;;;;;;;5.07;2.35;;;;;;;16.52;59.47;101847.09;15737121;28;20040;-52
2023/09/14 19:03:31;;;;;;;8.75;2.80;;;;;;;16.38;60.13;101857.22;15719510;28;20039;-49
2023/09/14 19:11:06;;;;;;;6.22;3.20;;;;;;;16.27;60.66;101853.34;15737471;28;20044;-48
2023/09/14 19:18:39;;;;;;;5.45;2.83;;;;;;;16.16;61.06;101851.34;15746290;28;20044;-48
2023/09/14 19:26:16;;;;;;;7.90;3.83;;;;;;;16.06;62.73;101849.13;15748438;28;20275;-47
2023/09/14 19:33:52;;;;;;;7.97;3.15;;;;;;;16.10;62.60;101845.97;15747522;28;20037;-52
2023/09/14 19:41:27;;;;;;;;;;;;;;;15.85;63.33;101856.75;15749014;28;20477;-47
2023/09/14 19:49:01;;;;;;;7.85;3.85;;;;;;;15.75;62.94;101852.66;15748686;28;20389;-48
2023/09/14 19:56:38;;;;;;;8.52;4.07;;;;;;;15.63;64.01;101856.25;15703458;28;20052;-50
2023/09/14 20:04:11;;;;;;;8.07;4.20;;;;;;;15.43;64.76;101869.84;15685412;28;20045;-53
2023/09/14 20:11:46;;;;;;;9.82;5.07;;;;;;;15.37;65.15;101870.72;15688400;28;20658;-47
2023/09/14 20:19:19;;;;;;;9.27;4.32;;;;;;;15.24;65.18;101877.00;15727149;28;20090;-48
2023/09/14 20:26:56;;;;;;;7.47;4.82;;;;;;;14.91;66.21;101871.69;15729784;28;20157;-50
2023/09/14 20:34:29;;;;;;;8.52;4.57;;;;;;;15.03;65.63;101861.91;15741542;28;20036;-47
2023/09/14 20:42:04;;;;;;;6.05;3.70;;;;;;;14.82;66.24;101868.38;15744070;28;20048;-49
2023/09/14 20:49:37;;;;;;;8.23;4.00;;;;;;;14.63;67.05;101861.13;15725116;28;20064;-47
2023/09/14 20:57:12;;;;;;;5.57;3.45;;;;;;;14.62;66.73;101878.38;15742686;28;20280;-49
2023/09/14 21:04:45;;;;;;;7.25;3.53;;;;;;;14.56;66.69;101877.34;15730610;28;20729;-48
2023/09/14 21:12:19;;;;;;;5.55;3.05;;;;;;;14.35;66.40;101878.34;15742752;28;20076;-47
2023/09/14 21:19:58;;;;;;;6.45;3.85;;;;;;;14.29;66.86;101882.72;15742333;28;20051;-51
2023/09/14 21:27:37;;;;;;;7.95;3.90;;;;;;;14.00;67.40;101877.72;15741150;28;20136;-47
2023/09/14 21:35:10;;;;;;;6.00;4.03;;;;;;;14.14;66.68;101878.56;15740015;28;20040;-48
2023/09/14 21:42:45;;;;;;;8.43;4.20;;;;;;;14.01;67.35;101876.66;15740205;28;20044;-51
2023/09/14 21:50:21;;;;;;;6.90;3.60;;;;;;;14.05;67.19;101877.91;15739868;28;20414;-47
2023/09/14 21:57:56;;;;;;;6.97;3.65;;;;;;;13.92;67.34;101881.41;15739413;28;20068;-47
2023/09/14 22:05:29;;;;;;;5.78;3.78;;;;;;;13.67;68.38;101885.72;15739156;28;20080;-51
2023/09/14 22:13:04;;;;;;;6.10;3.97;;;;;;;13.64;68.46;101880.72;15738880;28;20052;-47
2023/09/14 22:20:38;;;;;;;6.00;4.00;;;;;;;13.77;68.04;101878.06;15738954;28;20053;-51
2023/09/14 22:28:12;;;;;;;6.70;4.20;;;;;;;13.48;68.93;101881.91;15721444;28;20048;-51
2023/09/14 22:35:45;;;;;;;8.30;4.07;;;;;;;13.53;68.15;101882.97;15720700;28;20047;-50
2023/09/14 22:43:20;;;;;;;7.05;4.78;;;;;;;13.45;68.69;101882.31;15715134;28;20067;-47
2023/09/14 22:51:04;;;;;;;6.70;4.15;;;;;;;13.36;68.82;101875.44;15723651;28;20124;-48
2023/09/14 22:58:43;;;;;;;6.78;4.22;;;;;;;13.32;68.55;101866.91;15737866;28;20354;-48
2023/09/14 23:06:17;;;;;;;8.75;4.13;;;;;;;13.25;68.42;101872.28;15739540;28;20124;-49
2023/09/14 23:13:53;;;;;;;6.70;3.90;;;;;;;13.13;68.43;101868.44;15731909;28;20039;-48
2023/09/14 23:21:25;;;;;;;6.38;4.25;;;;;;;13.01;68.60;101861.97;15749312;28;20048;-47
2023/09/14 23:29:00;;;;;;;9.45;4.35;;;;;;;12.98;69.19;101865.03;15747098;28;20063;-47
2023/09/14 23:36:34;;;;;;;5.72;4.10;;;;;;;12.91;69.15;101856.06;15748587;28;20378;-50
2023/09/14 23:44:11;;;;;;;7.53;3.88;;;;;;;12.90;68.98;101857.94;15748662;28;20040;-51
2023/09/14 23:51:45;;;;;;;6.85;3.85;;;;;;;12.77;69.39;101856.00;15748467;28;20048;-47
2023/09/14 23:59:21;;;;;;;6.95;3.97;;;;;;;12.75;69.12;101859.94;15738324;28;20056;-49
